sensor_id;sensor_type;location;lat;lon;timestamp;P1;durP1;ratioP1;P2;durP2;ratioP2
15358;SDS011;7779;49.596;11.070;2023-03-30T00:01:02;2.10;;;1.40;;
15358;SDS011;7779;49.596;11.070;2023-03-30T00:03:36;3.07;;;1.37;;
15358;SDS011;7779;49.596;11.070;2023-03-30T00:06:03;3.93;;;1.37;;
15358;SDS011;7779;49.596;11.070;2023-03-30T00:08:30;2.03;;;1.37;;
15358;SDS011;7779;49.596;11.070;2023-03-30T00:13:28;2.77;;;1.17;;
15358;SDS011;7779;49.596;11.070;2023-03-30T00:15:55;2.13;;;1.23;;
15358;SDS011;7779;49.596;11.070;2023-03-30T00:18:21;1.70;;;1.37;;
15358;SDS011;7779;49.596;11.070;2023-03-30T00:20:48;2.57;;;1.47;;
15358;SDS011;7779;49.596;11.070;2023-03-30T00:23:15;2.93;;;1.87;;
15358;SDS011;7779;49.596;11.070;2023-03-30T00:25:42;2.37;;;1.80;;
15358;SDS011;7779;49.596;11.070;2023-03-30T00:28:08;3.47;;;2.20;;
15358;SDS011;7779;49.596;11.070;2023-03-30T00:30:34;4.07;;;2.20;;
15358;SDS011;7779;49.596;11.070;2023-03-30T00:33:01;3.10;;;2.00;;
15358;SDS011;7779;49.596;11.070;2023-03-30T00:35:28;3.37;;;2.30;;
15358;SDS011;7779;49.596;11.070;2023-03-30T00:37:55;3.70;;;2.27;;
15358;SDS011;7779;49.596;11.070;2023-03-30T00:40:25;3.83;;;2.60;;
15358;SDS011;7779;49.596;11.070;2023-03-30T00:42:56;5.53;;;2.40;;
15358;SDS011;7779;49.596;11.070;2023-03-30T00:45:25;4.37;;;2.10;;
15358;SDS011;7779;49.596;11.070;2023-03-30T00:48:00;3.13;;;2.17;;
15358;SDS011;7779;49.596;11.070;2023-03-30T00:51:05;3.37;;;2.07;;
15358;SDS011;7779;49.596;11.070;2023-03-30T00:53:38;3.10;;;1.60;;
15358;SDS011;7779;49.596;11.070;2023-03-30T00:56:10;2.63;;;1.80;;
15358;SDS011;7779;49.596;11.070;2023-03-30T00:58:40;2.53;;;1.70;;
15358;SDS011;7779;49.596;11.070;2023-03-30T01:01:09;2.70;;;1.90;;
15358;SDS011;7779;49.596;11.070;2023-03-30T01:03:40;3.23;;;1.73;;
15358;SDS011;7779;49.596;11.070;2023-03-30T01:06:12;3.67;;;1.80;;
15358;SDS011;7779;49.596;11.070;2023-03-30T01:08:42;2.17;;;1.70;;
15358;SDS011;7779;49.596;11.070;2023-03-30T01:11:09;3.47;;;2.00;;
15358;SDS011;7779;49.596;11.070;2023-03-30T01:13:36;3.80;;;1.80;;
15358;SDS011;7779;49.596;11.070;2023-03-30T01:19:27;2.73;;;1.30;;
15358;SDS011;7779;49.596;11.070;2023-03-30T01:28:36;1.50;;;1.17;;
15358;SDS011;7779;49.596;11.070;2023-03-30T01:31:28;2.70;;;1.57;;
15358;SDS011;7779;49.596;11.070;2023-03-30T01:48:11;2.77;;;1.20;;
15358;SDS011;7779;49.596;11.070;2023-03-30T01:50:59;1.90;;;1.33;;
15358;SDS011;7779;49.596;11.070;2023-03-30T01:53:41;2.00;;;1.57;;
15358;SDS011;7779;49.596;11.070;2023-03-30T01:56:18;3.33;;;1.37;;
15358;SDS011;7779;49.596;11.070;2023-03-30T01:59:15;1.80;;;1.20;;
15358;SDS011;7779;49.596;11.070;2023-03-30T02:01:50;2.87;;;1.50;;
15358;SDS011;7779;49.596;11.070;2023-03-30T02:04:24;2.50;;;1.30;;
15358;SDS011;7779;49.596;11.070;2023-03-30T02:06:58;3.93;;;1.30;;
15358;SDS011;7779;49.596;11.070;2023-03-30T02:09:30;2.70;;;1.37;;
15358;SDS011;7779;49.596;11.070;2023-03-30T02:11:59;2.10;;;1.20;;
15358;SDS011;7779;49.596;11.070;2023-03-30T02:14:28;1.80;;;1.33;;
15358;SDS011;7779;49.596;11.070;2023-03-30T02:17:19;2.00;;;1.30;;
15358;SDS011;7779;49.596;11.070;2023-03-30T02:19:47;2.90;;;1.50;;
15358;SDS011;7779;49.596;11.070;2023-03-30T02:22:14;1.80;;;1.37;;
15358;SDS011;7779;49.596;11.070;2023-03-30T02:24:43;2.77;;;1.40;;
15358;SDS011;7779;49.596;11.070;2023-03-30T02:27:12;4.17;;;1.50;;
15358;SDS011;7779;49.596;11.070;2023-03-30T02:29:40;2.53;;;1.20;;
15358;SDS011;7779;49.596;11.070;2023-03-30T02:32:22;2.43;;;1.77;;
15358;SDS011;7779;49.596;11.070;2023-03-30T02:34:56;3.47;;;1.50;;
15358;SDS011;7779;49.596;11.070;2023-03-30T02:40:49;2.50;;;1.63;;
15358;SDS011;7779;49.596;11.070;2023-03-30T02:43:43;2.00;;;1.27;;
15358;SDS011;7779;49.596;11.070;2023-03-30T02:46:45;3.57;;;1.43;;
15358;SDS011;7779;49.596;11.070;2023-03-30T02:55:19;1.93;;;1.40;;
15358;SDS011;7779;49.596;11.070;2023-03-30T02:58:23;3.80;;;1.50;;
15358;SDS011;7779;49.596;11.070;2023-03-30T03:01:57;2.57;;;1.43;;
15358;SDS011;7779;49.596;11.070;2023-03-30T03:04:17;3.43;;;2.30;;
15358;SDS011;7779;49.596;11.070;2023-03-30T03:07:15;4.77;;;3.40;;
15358;SDS011;7779;49.596;11.070;2023-03-30T03:09:43;5.33;;;3.40;;
15358;SDS011;7779;49.596;11.070;2023-03-30T03:12:12;4.77;;;3.07;;
15358;SDS011;7779;49.596;11.070;2023-03-30T03:14:39;5.87;;;3.90;;
15358;SDS011;7779;49.596;11.070;2023-03-30T03:17:05;5.70;;;3.67;;
15358;SDS011;7779;49.596;11.070;2023-03-30T03:19:35;5.23;;;3.70;;
15358;SDS011;7779;49.596;11.070;2023-03-30T03:22:01;6.27;;;4.67;;
15358;SDS011;7779;49.596;11.070;2023-03-30T03:24:30;6.50;;;4.53;;
15358;SDS011;7779;49.596;11.070;2023-03-30T03:27:26;6.13;;;4.07;;
15358;SDS011;7779;49.596;11.070;2023-03-30T03:30:03;7.37;;;4.07;;
15358;SDS011;7779;49.596;11.070;2023-03-30T03:32:36;5.03;;;3.50;;
15358;SDS011;7779;49.596;11.070;2023-03-30T03:35:02;4.40;;;3.33;;
15358;SDS011;7779;49.596;11.070;2023-03-30T03:37:28;3.40;;;3.10;;
15358;SDS011;7779;49.596;11.070;2023-03-30T03:39:54;4.43;;;2.43;;
15358;SDS011;7779;49.596;11.070;2023-03-30T03:42:20;2.93;;;1.90;;
15358;SDS011;7779;49.596;11.070;2023-03-30T03:45:00;2.93;;;1.70;;
15358;SDS011;7779;49.596;11.070;2023-03-30T03:47:26;4.57;;;2.17;;
15358;SDS011;7779;49.596;11.070;2023-03-30T03:49:52;2.73;;;1.87;;
15358;SDS011;7779;49.596;11.070;2023-03-30T03:52:18;3.53;;;1.67;;
15358;SDS011;7779;49.596;11.070;2023-03-30T03:54:44;2.50;;;1.60;;
15358;SDS011;7779;49.596;11.070;2023-03-30T03:57:10;2.50;;;1.67;;
15358;SDS011;7779;49.596;11.070;2023-03-30T03:59:36;2.93;;;1.80;;
15358;SDS011;7779;49.596;11.070;2023-03-30T04:02:01;2.67;;;1.77;;
15358;SDS011;7779;49.596;11.070;2023-03-30T04:04:29;2.47;;;1.77;;
15358;SDS011;7779;49.596;11.070;2023-03-30T04:06:55;5.07;;;1.70;;
15358;SDS011;7779;49.596;11.070;2023-03-30T04:09:21;4.00;;;1.90;;
15358;SDS011;7779;49.596;11.070;2023-03-30T04:12:13;2.40;;;1.63;;
15358;SDS011;7779;49.596;11.070;2023-03-30T04:14:57;3.07;;;1.83;;
15358;SDS011;7779;49.596;11.070;2023-03-30T04:17:36;3.13;;;1.50;;
15358;SDS011;7779;49.596;11.070;2023-03-30T04:20:14;3.47;;;1.60;;
15358;SDS011;7779;49.596;11.070;2023-03-30T04:22:55;3.13;;;1.57;;
15358;SDS011;7779;49.596;11.070;2023-03-30T04:25:30;2.87;;;1.70;;
15358;SDS011;7779;49.596;11.070;2023-03-30T04:28:19;3.33;;;1.73;;
15358;SDS011;7779;49.596;11.070;2023-03-30T04:31:06;3.20;;;1.70;;
15358;SDS011;7779;49.596;11.070;2023-03-30T04:33:53;3.27;;;2.07;;
15358;SDS011;7779;49.596;11.070;2023-03-30T04:36:35;3.70;;;2.67;;
15358;SDS011;7779;49.596;11.070;2023-03-30T04:39:20;3.83;;;2.23;;
15358;SDS011;7779;49.596;11.070;2023-03-30T04:41:59;4.70;;;2.60;;
15358;SDS011;7779;49.596;11.070;2023-03-30T04:44:49;2.87;;;2.00;;
15358;SDS011;7779;49.596;11.070;2023-03-30T04:47:40;2.93;;;1.77;;
15358;SDS011;7779;49.596;11.070;2023-03-30T04:50:26;4.47;;;3.00;;
15358;SDS011;7779;49.596;11.070;2023-03-30T04:53:10;4.80;;;3.00;;
15358;SDS011;7779;49.596;11.070;2023-03-30T04:56:01;7.20;;;3.20;;
15358;SDS011;7779;49.596;11.070;2023-03-30T04:58:33;4.77;;;3.20;;
15358;SDS011;7779;49.596;11.070;2023-03-30T05:01:19;3.83;;;2.57;;
15358;SDS011;7779;49.596;11.070;2023-03-30T05:04:03;6.60;;;4.20;;
15358;SDS011;7779;49.596;11.070;2023-03-30T05:06:32;8.10;;;4.67;;
15358;SDS011;7779;49.596;11.070;2023-03-30T05:09:16;7.60;;;3.33;;
15358;SDS011;7779;49.596;11.070;2023-03-30T05:12:00;5.10;;;2.83;;
15358;SDS011;7779;49.596;11.070;2023-03-30T05:14:51;4.10;;;2.67;;
15358;SDS011;7779;49.596;11.070;2023-03-30T05:17:46;4.60;;;2.73;;
15358;SDS011;7779;49.596;11.070;2023-03-30T05:20:20;5.03;;;3.17;;
15358;SDS011;7779;49.596;11.070;2023-03-30T05:23:04;7.17;;;4.67;;
15358;SDS011;7779;49.596;11.070;2023-03-30T05:25:49;6.00;;;3.70;;
15358;SDS011;7779;49.596;11.070;2023-03-30T05:28:30;5.30;;;3.30;;
15358;SDS011;7779;49.596;11.070;2023-03-30T05:31:17;4.17;;;2.90;;
15358;SDS011;7779;49.596;11.070;2023-03-30T05:33:54;5.40;;;3.40;;
15358;SDS011;7779;49.596;11.070;2023-03-30T05:36:31;5.47;;;3.67;;
15358;SDS011;7779;49.596;11.070;2023-03-30T05:39:28;3.47;;;2.73;;
15358;SDS011;7779;49.596;11.070;2023-03-30T05:42:09;4.40;;;3.13;;
15358;SDS011;7779;49.596;11.070;2023-03-30T05:44:41;4.73;;;2.80;;
15358;SDS011;7779;49.596;11.070;2023-03-30T05:47:27;3.93;;;2.70;;
15358;SDS011;7779;49.596;11.070;2023-03-30T05:50:11;5.83;;;2.77;;
15358;SDS011;7779;49.596;11.070;2023-03-30T05:52:46;4.37;;;2.73;;
15358;SDS011;7779;49.596;11.070;2023-03-30T05:55:21;4.10;;;2.57;;
15358;SDS011;7779;49.596;11.070;2023-03-30T05:58:11;4.90;;;2.53;;
15358;SDS011;7779;49.596;11.070;2023-03-30T06:00:58;4.63;;;2.50;;
15358;SDS011;7779;49.596;11.070;2023-03-30T06:03:32;6.13;;;2.40;;
15358;SDS011;7779;49.596;11.070;2023-03-30T06:05:57;5.80;;;2.37;;
15358;SDS011;7779;49.596;11.070;2023-03-30T06:08:23;3.93;;;2.20;;
15358;SDS011;7779;49.596;11.070;2023-03-30T06:10:55;5.03;;;2.53;;
15358;SDS011;7779;49.596;11.070;2023-03-30T06:13:24;3.70;;;1.70;;
15358;SDS011;7779;49.596;11.070;2023-03-30T06:15:51;2.60;;;1.90;;
15358;SDS011;7779;49.596;11.070;2023-03-30T06:18:22;6.47;;;2.10;;
15358;SDS011;7779;49.596;11.070;2023-03-30T06:21:00;5.00;;;2.03;;
15358;SDS011;7779;49.596;11.070;2023-03-30T06:23:34;4.50;;;2.40;;
15358;SDS011;7779;49.596;11.070;2023-03-30T06:26:04;6.10;;;2.43;;
15358;SDS011;7779;49.596;11.070;2023-03-30T06:28:33;6.87;;;2.93;;
15358;SDS011;7779;49.596;11.070;2023-03-30T06:31:00;5.63;;;2.83;;
15358;SDS011;7779;49.596;11.070;2023-03-30T06:33:31;4.87;;;2.53;;
15358;SDS011;7779;49.596;11.070;2023-03-30T06:35:59;6.00;;;2.30;;
15358;SDS011;7779;49.596;11.070;2023-03-30T06:38:26;4.47;;;2.60;;
15358;SDS011;7779;49.596;11.070;2023-03-30T06:40:54;6.43;;;2.73;;
15358;SDS011;7779;49.596;11.070;2023-03-30T06:43:23;6.80;;;3.10;;
15358;SDS011;7779;49.596;11.070;2023-03-30T06:46:05;6.03;;;2.23;;
15358;SDS011;7779;49.596;11.070;2023-03-30T06:48:32;5.90;;;2.80;;
15358;SDS011;7779;49.596;11.070;2023-03-30T06:51:24;4.37;;;2.37;;
15358;SDS011;7779;49.596;11.070;2023-03-30T06:53:54;6.17;;;2.50;;
15358;SDS011;7779;49.596;11.070;2023-03-30T06:56:20;12.23;;;2.97;;
15358;SDS011;7779;49.596;11.070;2023-03-30T06:59:03;7.57;;;2.60;;
15358;SDS011;7779;49.596;11.070;2023-03-30T07:01:31;5.70;;;2.13;;
15358;SDS011;7779;49.596;11.070;2023-03-30T07:04:24;4.80;;;2.30;;
15358;SDS011;7779;49.596;11.070;2023-03-30T07:07:08;7.60;;;2.60;;
15358;SDS011;7779;49.596;11.070;2023-03-30T07:09:34;6.57;;;2.33;;
15358;SDS011;7779;49.596;11.070;2023-03-30T07:12:00;7.23;;;2.13;;
15358;SDS011;7779;49.596;11.070;2023-03-30T07:14:26;5.10;;;2.47;;
15358;SDS011;7779;49.596;11.070;2023-03-30T07:16:52;7.63;;;2.37;;
15358;SDS011;7779;49.596;11.070;2023-03-30T07:19:17;7.90;;;2.80;;
15358;SDS011;7779;49.596;11.070;2023-03-30T07:21:43;9.23;;;2.90;;
15358;SDS011;7779;49.596;11.070;2023-03-30T07:24:13;7.07;;;2.80;;
15358;SDS011;7779;49.596;11.070;2023-03-30T07:26:39;7.07;;;2.20;;
15358;SDS011;7779;49.596;11.070;2023-03-30T07:29:07;5.00;;;2.03;;
15358;SDS011;7779;49.596;11.070;2023-03-30T07:31:35;5.93;;;2.40;;
15358;SDS011;7779;49.596;11.070;2023-03-30T07:34:03;5.03;;;2.30;;
15358;SDS011;7779;49.596;11.070;2023-03-30T07:36:33;6.80;;;2.33;;
15358;SDS011;7779;49.596;11.070;2023-03-30T07:38:59;8.73;;;2.23;;
15358;SDS011;7779;49.596;11.070;2023-03-30T07:41:27;5.47;;;2.40;;
15358;SDS011;7779;49.596;11.070;2023-03-30T07:43:56;6.80;;;2.70;;
15358;SDS011;7779;49.596;11.070;2023-03-30T07:46:22;6.93;;;2.70;;
15358;SDS011;7779;49.596;11.070;2023-03-30T07:48:50;4.77;;;2.50;;
15358;SDS011;7779;49.596;11.070;2023-03-30T07:51:18;7.77;;;2.43;;
15358;SDS011;7779;49.596;11.070;2023-03-30T07:53:51;5.27;;;2.60;;
15358;SDS011;7779;49.596;11.070;2023-03-30T07:56:26;8.23;;;2.90;;
15358;SDS011;7779;49.596;11.070;2023-03-30T07:58:53;6.33;;;2.50;;
15358;SDS011;7779;49.596;11.070;2023-03-30T08:01:23;7.13;;;3.10;;
15358;SDS011;7779;49.596;11.070;2023-03-30T08:04:07;4.47;;;2.33;;
15358;SDS011;7779;49.596;11.070;2023-03-30T08:06:34;7.63;;;3.03;;
15358;SDS011;7779;49.596;11.070;2023-03-30T08:09:00;7.10;;;2.67;;
15358;SDS011;7779;49.596;11.070;2023-03-30T08:11:28;7.67;;;2.67;;
15358;SDS011;7779;49.596;11.070;2023-03-30T08:13:55;5.63;;;2.60;;
15358;SDS011;7779;49.596;11.070;2023-03-30T08:16:21;4.83;;;2.23;;
15358;SDS011;7779;49.596;11.070;2023-03-30T08:18:47;5.13;;;2.57;;
15358;SDS011;7779;49.596;11.070;2023-03-30T08:21:13;6.40;;;2.43;;
15358;SDS011;7779;49.596;11.070;2023-03-30T08:23:38;9.37;;;2.77;;
15358;SDS011;7779;49.596;11.070;2023-03-30T08:26:04;4.53;;;2.17;;
15358;SDS011;7779;49.596;11.070;2023-03-30T08:28:30;5.43;;;2.30;;
15358;SDS011;7779;49.596;11.070;2023-03-30T08:31:01;7.63;;;2.47;;
15358;SDS011;7779;49.596;11.070;2023-03-30T08:33:32;6.07;;;2.07;;
15358;SDS011;7779;49.596;11.070;2023-03-30T08:35:59;5.37;;;2.60;;
15358;SDS011;7779;49.596;11.070;2023-03-30T08:38:24;6.10;;;2.43;;
15358;SDS011;7779;49.596;11.070;2023-03-30T08:40:50;7.07;;;2.60;;
15358;SDS011;7779;49.596;11.070;2023-03-30T08:43:29;6.03;;;2.33;;
15358;SDS011;7779;49.596;11.070;2023-03-30T08:46:10;5.90;;;2.00;;
15358;SDS011;7779;49.596;11.070;2023-03-30T08:48:41;5.83;;;1.93;;
15358;SDS011;7779;49.596;11.070;2023-03-30T08:53:41;3.73;;;2.20;;
15358;SDS011;7779;49.596;11.070;2023-03-30T08:56:08;4.30;;;1.87;;
15358;SDS011;7779;49.596;11.070;2023-03-30T09:04:41;4.93;;;1.80;;
15358;SDS011;7779;49.596;11.070;2023-03-30T09:07:35;3.10;;;1.63;;
15358;SDS011;7779;49.596;11.070;2023-03-30T09:10:11;4.83;;;1.70;;
15358;SDS011;7779;49.596;11.070;2023-03-30T09:12:40;3.77;;;1.53;;
15358;SDS011;7779;49.596;11.070;2023-03-30T09:15:38;4.07;;;2.10;;
15358;SDS011;7779;49.596;11.070;2023-03-30T09:18:18;4.80;;;2.13;;
15358;SDS011;7779;49.596;11.070;2023-03-30T09:20:57;5.83;;;3.40;;
15358;SDS011;7779;49.596;11.070;2023-03-30T09:23:26;4.23;;;2.77;;
15358;SDS011;7779;49.596;11.070;2023-03-30T09:26:00;6.07;;;3.10;;
15358;SDS011;7779;49.596;11.070;2023-03-30T09:31:31;4.33;;;1.97;;
15358;SDS011;7779;49.596;11.070;2023-03-30T09:34:27;3.80;;;1.80;;
15358;SDS011;7779;49.596;11.070;2023-03-30T09:37:16;4.90;;;2.00;;
15358;SDS011;7779;49.596;11.070;2023-03-30T09:39:43;3.50;;;1.60;;
15358;SDS011;7779;49.596;11.070;2023-03-30T09:42:31;5.40;;;1.80;;
15358;SDS011;7779;49.596;11.070;2023-03-30T09:45:13;2.63;;;1.97;;
15358;SDS011;7779;49.596;11.070;2023-03-30T09:47:52;3.23;;;1.87;;
15358;SDS011;7779;49.596;11.070;2023-03-30T09:52:54;3.17;;;1.83;;
15358;SDS011;7779;49.596;11.070;2023-03-30T09:55:32;2.10;;;1.60;;
15358;SDS011;7779;49.596;11.070;2023-03-30T09:58:15;4.40;;;1.77;;
15358;SDS011;7779;49.596;11.070;2023-03-30T10:00:44;3.97;;;2.17;;
15358;SDS011;7779;49.596;11.070;2023-03-30T10:03:25;4.40;;;1.93;;
15358;SDS011;7779;49.596;11.070;2023-03-30T10:06:04;5.73;;;1.90;;
15358;SDS011;7779;49.596;11.070;2023-03-30T10:08:47;3.80;;;1.73;;
15358;SDS011;7779;49.596;11.070;2023-03-30T10:11:20;5.80;;;2.37;;
15358;SDS011;7779;49.596;11.070;2023-03-30T10:16:56;6.53;;;2.17;;
15358;SDS011;7779;49.596;11.070;2023-03-30T10:19:23;7.87;;;2.60;;
15358;SDS011;7779;49.596;11.070;2023-03-30T10:21:53;3.73;;;1.87;;
15358;SDS011;7779;49.596;11.070;2023-03-30T10:24:26;6.93;;;2.27;;
15358;SDS011;7779;49.596;11.070;2023-03-30T10:27:02;5.43;;;2.17;;
15358;SDS011;7779;49.596;11.070;2023-03-30T10:29:37;7.57;;;2.23;;
15358;SDS011;7779;49.596;11.070;2023-03-30T10:32:18;5.63;;;2.60;;
15358;SDS011;7779;49.596;11.070;2023-03-30T10:34:55;6.83;;;2.20;;
15358;SDS011;7779;49.596;11.070;2023-03-30T10:40:08;5.10;;;2.40;;
15358;SDS011;7779;49.596;11.070;2023-03-30T10:42:41;7.27;;;2.33;;
15358;SDS011;7779;49.596;11.070;2023-03-30T10:45:14;6.20;;;1.97;;
15358;SDS011;7779;49.596;11.070;2023-03-30T10:47:51;8.97;;;2.27;;
15358;SDS011;7779;49.596;11.070;2023-03-30T10:50:47;5.87;;;2.40;;
15358;SDS011;7779;49.596;11.070;2023-03-30T10:56:48;4.93;;;2.50;;
15358;SDS011;7779;49.596;11.070;2023-03-30T11:02:14;7.87;;;2.57;;
15358;SDS011;7779;49.596;11.070;2023-03-30T11:05:10;5.97;;;2.30;;
15358;SDS011;7779;49.596;11.070;2023-03-30T11:15:48;5.50;;;2.43;;
15358;SDS011;7779;49.596;11.070;2023-03-30T11:19:16;5.23;;;2.37;;
15358;SDS011;7779;49.596;11.070;2023-03-30T11:22:02;7.20;;;2.13;;
15358;SDS011;7779;49.596;11.070;2023-03-30T11:25:02;4.90;;;2.50;;
15358;SDS011;7779;49.596;11.070;2023-03-30T11:27:52;6.13;;;2.53;;
15358;SDS011;7779;49.596;11.070;2023-03-30T11:30:31;5.97;;;2.10;;
15358;SDS011;7779;49.596;11.070;2023-03-30T11:35:50;4.03;;;1.97;;
15358;SDS011;7779;49.596;11.070;2023-03-30T11:38:32;4.37;;;2.30;;
15358;SDS011;7779;49.596;11.070;2023-03-30T11:41:13;4.47;;;1.80;;
15358;SDS011;7779;49.596;11.070;2023-03-30T11:43:44;4.30;;;2.27;;
15358;SDS011;7779;49.596;11.070;2023-03-30T11:46:13;3.17;;;1.80;;
15358;SDS011;7779;49.596;11.070;2023-03-30T11:54:54;1.93;;;1.33;;
15358;SDS011;7779;49.596;11.070;2023-03-30T11:57:56;5.23;;;1.63;;
15358;SDS011;7779;49.596;11.070;2023-03-30T12:00:51;2.40;;;1.20;;
15358;SDS011;7779;49.596;11.070;2023-03-30T12:03:43;5.47;;;1.93;;
15358;SDS011;7779;49.596;11.070;2023-03-30T12:06:20;3.80;;;1.40;;
15358;SDS011;7779;49.596;11.070;2023-03-30T12:09:01;1.93;;;1.40;;
15358;SDS011;7779;49.596;11.070;2023-03-30T12:20:20;2.40;;;1.43;;
15358;SDS011;7779;49.596;11.070;2023-03-30T12:29:10;1.57;;;1.20;;
15358;SDS011;7779;49.596;11.070;2023-03-30T12:32:02;2.37;;;1.40;;
15358;SDS011;7779;49.596;11.070;2023-03-30T12:34:32;1.97;;;1.40;;
15358;SDS011;7779;49.596;11.070;2023-03-30T12:37:12;1.47;;;1.13;;
15358;SDS011;7779;49.596;11.070;2023-03-30T12:39:54;2.27;;;1.50;;
15358;SDS011;7779;49.596;11.070;2023-03-30T12:42:30;1.37;;;1.03;;
15358;SDS011;7779;49.596;11.070;2023-03-30T13:05:25;2.33;;;1.40;;
15358;SDS011;7779;49.596;11.070;2023-03-30T13:08:00;2.20;;;1.17;;
15358;SDS011;7779;49.596;11.070;2023-03-30T13:10:38;4.43;;;1.40;;
15358;SDS011;7779;49.596;11.070;2023-03-30T13:13:15;3.17;;;1.57;;
15358;SDS011;7779;49.596;11.070;2023-03-30T13:25:42;3.67;;;1.40;;
15358;SDS011;7779;49.596;11.070;2023-03-30T13:34:40;1.83;;;1.30;;
15358;SDS011;7779;49.596;11.070;2023-03-30T13:44:08;1.83;;;1.20;;
15358;SDS011;7779;49.596;11.070;2023-03-30T13:46:59;2.93;;;1.40;;
15358;SDS011;7779;49.596;11.070;2023-03-30T13:49:59;2.67;;;1.20;;
15358;SDS011;7779;49.596;11.070;2023-03-30T13:52:47;2.97;;;1.50;;
15358;SDS011;7779;49.596;11.070;2023-03-30T13:58:05;2.57;;;1.20;;
15358;SDS011;7779;49.596;11.070;2023-03-30T14:00:48;1.87;;;1.10;;
15358;SDS011;7779;49.596;11.070;2023-03-30T14:06:25;1.97;;;1.30;;
15358;SDS011;7779;49.596;11.070;2023-03-30T14:11:43;1.80;;;1.13;;
15358;SDS011;7779;49.596;11.070;2023-03-30T14:17:01;2.97;;;1.10;;
15358;SDS011;7779;49.596;11.070;2023-03-30T14:19:47;3.27;;;1.23;;
15358;SDS011;7779;49.596;11.070;2023-03-30T14:22:39;1.43;;;1.20;;
15358;SDS011;7779;49.596;11.070;2023-03-30T14:27:55;1.63;;;1.10;;
15358;SDS011;7779;49.596;11.070;2023-03-30T14:30:26;3.20;;;1.20;;
15358;SDS011;7779;49.596;11.070;2023-03-30T14:33:09;2.03;;;1.23;;
15358;SDS011;7779;49.596;11.070;2023-03-30T14:35:38;3.10;;;1.20;;
15358;SDS011;7779;49.596;11.070;2023-03-30T14:38:15;2.33;;;1.50;;
15358;SDS011;7779;49.596;11.070;2023-03-30T14:40:59;4.67;;;1.43;;
15358;SDS011;7779;49.596;11.070;2023-03-30T14:43:26;2.53;;;1.40;;
15358;SDS011;7779;49.596;11.070;2023-03-30T14:45:56;2.30;;;1.07;;
15358;SDS011;7779;49.596;11.070;2023-03-30T14:48:30;3.20;;;1.30;;
15358;SDS011;7779;49.596;11.070;2023-03-30T14:51:03;2.30;;;1.10;;
15358;SDS011;7779;49.596;11.070;2023-03-30T14:53:44;2.17;;;1.10;;
15358;SDS011;7779;49.596;11.070;2023-03-30T14:56:10;4.00;;;1.20;;
15358;SDS011;7779;49.596;11.070;2023-03-30T14:58:37;2.10;;;1.20;;
15358;SDS011;7779;49.596;11.070;2023-03-30T15:01:04;1.47;;;1.07;;
15358;SDS011;7779;49.596;11.070;2023-03-30T15:03:34;2.73;;;1.30;;
15358;SDS011;7779;49.596;11.070;2023-03-30T15:06:02;2.17;;;1.13;;
15358;SDS011;7779;49.596;11.070;2023-03-30T15:08:31;1.47;;;0.93;;
15358;SDS011;7779;49.596;11.070;2023-03-30T15:11:05;2.03;;;1.10;;
15358;SDS011;7779;49.596;11.070;2023-03-30T15:13:37;1.97;;;1.10;;
15358;SDS011;7779;49.596;11.070;2023-03-30T15:16:14;1.70;;;1.20;;
15358;SDS011;7779;49.596;11.070;2023-03-30T15:18:50;3.20;;;1.53;;
15358;SDS011;7779;49.596;11.070;2023-03-30T15:21:20;2.80;;;1.13;;
15358;SDS011;7779;49.596;11.070;2023-03-30T15:23:46;2.53;;;1.20;;
15358;SDS011;7779;49.596;11.070;2023-03-30T15:26:15;2.23;;;0.97;;
15358;SDS011;7779;49.596;11.070;2023-03-30T15:28:47;1.37;;;0.97;;
15358;SDS011;7779;49.596;11.070;2023-03-30T15:31:17;3.83;;;1.00;;
15358;SDS011;7779;49.596;11.070;2023-03-30T15:33:47;1.93;;;0.80;;
15358;SDS011;7779;49.596;11.070;2023-03-30T15:36:19;1.47;;;0.80;;
15358;SDS011;7779;49.596;11.070;2023-03-30T15:39:20;1.50;;;0.90;;
15358;SDS011;7779;49.596;11.070;2023-03-30T15:44:20;1.83;;;0.90;;
15358;SDS011;7779;49.596;11.070;2023-03-30T15:46:48;1.57;;;0.93;;
15358;SDS011;7779;49.596;11.070;2023-03-30T15:49:19;1.43;;;0.90;;
15358;SDS011;7779;49.596;11.070;2023-03-30T15:51:54;1.23;;;0.80;;
15358;SDS011;7779;49.596;11.070;2023-03-30T15:57:01;2.87;;;0.90;;
15358;SDS011;7779;49.596;11.070;2023-03-30T15:59:43;2.50;;;0.77;;
15358;SDS011;7779;49.596;11.070;2023-03-30T16:02:16;6.87;;;0.93;;
15358;SDS011;7779;49.596;11.070;2023-03-30T16:04:47;1.67;;;0.80;;
15358;SDS011;7779;49.596;11.070;2023-03-30T16:07:15;1.93;;;1.00;;
15358;SDS011;7779;49.596;11.070;2023-03-30T16:09:46;2.63;;;1.10;;
15358;SDS011;7779;49.596;11.070;2023-03-30T16:12:14;1.60;;;0.73;;
15358;SDS011;7779;49.596;11.070;2023-03-30T16:14:45;1.63;;;0.87;;
15358;SDS011;7779;49.596;11.070;2023-03-30T16:17:12;2.17;;;0.93;;
15358;SDS011;7779;49.596;11.070;2023-03-30T16:19:39;1.83;;;0.83;;
15358;SDS011;7779;49.596;11.070;2023-03-30T16:22:06;1.50;;;0.80;;
15358;SDS011;7779;49.596;11.070;2023-03-30T16:24:33;3.77;;;0.90;;
15358;SDS011;7779;49.596;11.070;2023-03-30T16:26:59;0.90;;;0.60;;
15358;SDS011;7779;49.596;11.070;2023-03-30T16:29:25;1.13;;;0.70;;
15358;SDS011;7779;49.596;11.070;2023-03-30T16:31:52;3.53;;;0.80;;
15358;SDS011;7779;49.596;11.070;2023-03-30T16:34:18;2.40;;;0.67;;
15358;SDS011;7779;49.596;11.070;2023-03-30T16:36:46;3.27;;;1.00;;
15358;SDS011;7779;49.596;11.070;2023-03-30T16:39:15;2.47;;;0.60;;
15358;SDS011;7779;49.596;11.070;2023-03-30T16:41:48;1.43;;;0.80;;
15358;SDS011;7779;49.596;11.070;2023-03-30T16:44:16;2.70;;;0.83;;
15358;SDS011;7779;49.596;11.070;2023-03-30T16:46:44;1.53;;;0.73;;
15358;SDS011;7779;49.596;11.070;2023-03-30T16:49:11;1.23;;;0.60;;
15358;SDS011;7779;49.596;11.070;2023-03-30T16:51:46;0.53;;;0.50;;
15358;SDS011;7779;49.596;11.070;2023-03-30T16:54:12;1.90;;;0.73;;
15358;SDS011;7779;49.596;11.070;2023-03-30T16:56:38;2.33;;;0.80;;
15358;SDS011;7779;49.596;11.070;2023-03-30T16:59:05;0.63;;;0.50;;
15358;SDS011;7779;49.596;11.070;2023-03-30T17:01:43;1.70;;;0.90;;
15358;SDS011;7779;49.596;11.070;2023-03-30T17:04:09;1.17;;;0.70;;
15358;SDS011;7779;49.596;11.070;2023-03-30T17:06:35;1.27;;;0.70;;
15358;SDS011;7779;49.596;11.070;2023-03-30T17:09:00;1.97;;;0.60;;
15358;SDS011;7779;49.596;11.070;2023-03-30T17:11:26;0.73;;;0.43;;
15358;SDS011;7779;49.596;11.070;2023-03-30T17:13:52;3.23;;;1.20;;
15358;SDS011;7779;49.596;11.070;2023-03-30T17:16:17;2.20;;;1.07;;
15358;SDS011;7779;49.596;11.070;2023-03-30T17:18:43;0.90;;;0.50;;
15358;SDS011;7779;49.596;11.070;2023-03-30T17:21:09;1.70;;;0.60;;
15358;SDS011;7779;49.596;11.070;2023-03-30T17:23:40;1.17;;;0.60;;
15358;SDS011;7779;49.596;11.070;2023-03-30T17:26:08;1.67;;;0.50;;
15358;SDS011;7779;49.596;11.070;2023-03-30T17:28:36;0.83;;;0.40;;
15358;SDS011;7779;49.596;11.070;2023-03-30T17:31:03;1.53;;;0.50;;
15358;SDS011;7779;49.596;11.070;2023-03-30T17:33:36;1.23;;;0.40;;
15358;SDS011;7779;49.596;11.070;2023-03-30T17:36:03;1.27;;;0.60;;
15358;SDS011;7779;49.596;11.070;2023-03-30T17:38:38;0.90;;;0.40;;
15358;SDS011;7779;49.596;11.070;2023-03-30T17:41:05;2.33;;;0.53;;
15358;SDS011;7779;49.596;11.070;2023-03-30T17:43:36;1.63;;;0.63;;
15358;SDS011;7779;49.596;11.070;2023-03-30T17:46:08;1.77;;;0.60;;
15358;SDS011;7779;49.596;11.070;2023-03-30T17:48:36;0.80;;;0.30;;
15358;SDS011;7779;49.596;11.070;2023-03-30T17:51:02;0.83;;;0.57;;
15358;SDS011;7779;49.596;11.070;2023-03-30T17:53:29;1.37;;;0.60;;
15358;SDS011;7779;49.596;11.070;2023-03-30T17:55:55;1.43;;;0.57;;
15358;SDS011;7779;49.596;11.070;2023-03-30T17:58:26;3.00;;;0.60;;
15358;SDS011;7779;49.596;11.070;2023-03-30T18:00:57;1.67;;;0.57;;
15358;SDS011;7779;49.596;11.070;2023-03-30T18:03:31;1.30;;;0.67;;
15358;SDS011;7779;49.596;11.070;2023-03-30T18:05:58;1.93;;;1.20;;
15358;SDS011;7779;49.596;11.070;2023-03-30T18:08:25;4.53;;;2.70;;